Observations for NORWICH WEA CNTRE, United Kingdom (EGSH)

EGSH 221520Z 31006KT 250V350 9999 FEW031 12/05 Q1036 NOSIG  
EGSH 221450Z 31006KT 270V360 9999 FEW031 12/05 Q1036 NOSIG  
EGSH 221420Z 31005KT 260V350 9999 FEW031 12/06 Q1036 NOSIG  
EGSH 221350Z 34006KT 310V040 9999 FEW031 12/05 Q1037 NOSIG  
EGSH 221320Z 35006KT 290V030 9999 FEW031 12/05 Q1037 NOSIG  
EGSH 221250Z 33006KT 290V010 9999 FEW031 12/06 Q1036 NOSIG  
EGSH 221220Z 33007KT 240V020 9999 SCT030 12/05 Q1037 NOSIG  
EGSH 221150Z 35008KT 310V030 9999 SCT030 12/06 Q1037 NOSIG  
EGSH 221120Z 36006KT 300V030 9999 SCT030 13/05 Q1037 NOSIG  
EGSH 221050Z 35009KT 300V030 9999 SCT030 12/05 Q1037 NOSIG  
EGSH 221020Z 36008KT 320V020 9999 SCT030 12/06 Q1036 NOSIG  
EGSH 220950Z 36008KT 310V030 9999 SCT030 12/06 Q1036 NOSIG  
EGSH 220920Z 35009KT 290V020 9999 FEW029 12/06 Q1036 NOSIG  
EGSH 220850Z 34006KT 300V040 9999 FEW030 11/07 Q1036 NOSIG  
EGSH 220820Z 33006KT 290V020 9999 FEW030 10/06 Q1036 NOSIG  
EGSH 220750Z 32005KT 290V360 9999 FEW030 09/06 Q1035 NOSIG  
EGSH 220720Z 33005KT 290V010 9999 FEW030 09/06 Q1035 NOSIG  
EGSH 220650Z 32004KT 290V360 9999 SCT026 08/06 Q1034 NOSIG  
EGSH 220620Z 30004KT 270V330 9999 SCT026 08/05 Q1034 NOSIG  
EGSH 220550Z VRB03KT 9999 FEW027 08/05 Q1034 NOSIG  
EGSH 220520Z 31004KT 280V350 9999 FEW029 09/06 Q1033 NOSIG  
EGSH 220450Z AUTO 32005KT 290V360 9999 SCT027/// 09/05 Q1033
EGSH 220420Z AUTO 33007KT 300V020 9999 BKN027/// 10/05 Q1033
EGSH 220350Z AUTO 34006KT 310V020 9999 FEW029/// 09/05 Q1033
EGSH 220320Z AUTO 34005KT 300V020 9999 NCD 10/05 Q1032  
EGSH 220250Z AUTO 34008KT 290V020 9999 OVC025/// 11/06 Q1032
EGSH 220220Z AUTO 32008KT 280V360 9999 BKN022/// OVC028/// 11/07 Q1032  
EGSH 220150Z AUTO 35006KT 320V020 9999 FEW025/// 11/06 Q1032
EGSH 220120Z AUTO 34006KT 300V020 9999 FEW030/// 11/06 Q1031
EGSH 220050Z AUTO 35009KT 290V020 9999 SCT023/// BKN029/// 12/07 Q1031  
EGSH 220020Z AUTO 35009KT 310V030 9999 BKN032/// 12/08 Q1031
EGSH 212350Z AUTO 35009KT 300V030 9999 FEW022/// BKN028/// OVC033/// 13/08 Q1031
EGSH 212320Z AUTO 35008KT 310V030 9999 FEW018/// OVC025/// 13/09 Q1030  
EGSH 212250Z AUTO 35010G21KT 310V030 9999 SCT018/// BKN024/// OVC030/// 13/10 Q1030 
EGSH 212220Z 35010G21KT 300V030 9999 BKN018 13/10 Q1030 NOSIG   
EGSH 212150Z 36009KT 320V020 9999 BKN025 14/10 Q1029 NOSIG  
EGSH 212120Z 36008KT 320V020 9999 BKN025 14/10 Q1029 TEMPO BKN014   
EGSH 212050Z 36009KT 320V020 9999 -DZ SCT010 BKN023 13/12 Q1028 TEMPO BKN010
EGSH 212020Z 35009KT 320V050 9999 BKN015 14/12 Q1028 TEMPO BKN012   
EGSH 211950Z 34009KT 290V030 9999 BKN015 15/12 Q1028 TEMPO BKN012   
EGSH 211920Z 33006KT 270V010 9999 BKN020 16/13 Q1027 TEMPO BKN014   
EGSH 211850Z 27004KT 9999 BKN025 16/13 Q1027
EGSH 211820Z 25003KT 9999 BKN025 15/13 Q1026 TEMPO BKN014   
EGSH 211750Z 25003KT 9999 BKN027 16/12 Q1026 NOSIG  
EGSH 211720Z 25003KT 9999 BKN027 16/13 Q1026 NOSIG  
EGSH 211650Z 25005KT 9999 BKN049 16/12 Q1026 TEMPO BKN008   
EGSH 211620Z 27005KT 9999 BKN036 17/12 Q1025 NOSIG  
EGSH 211550Z 26005KT 9999 SCT041 17/12 Q1025 NOSIG  
EGSH 211520Z 25008KT CAVOK 17/12 Q1025 NOSIG
EGSH 211450Z 27007KT CAVOK 18/12 Q1025 NOSIG